createdAt,value
2017-09-12T00:00:16.329Z,91.90
2017-09-12T00:02:43.788Z,91.90
2017-09-12T00:05:11.255Z,91.80
2017-09-12T00:07:38.704Z,91.90
2017-09-12T00:10:06.156Z,91.90
2017-09-12T00:12:33.619Z,91.90
2017-09-12T00:15:01.793Z,91.90
2017-09-12T00:17:29.252Z,92.00
2017-09-12T00:19:56.699Z,92.00
2017-09-12T00:22:24.143Z,91.90
2017-09-12T00:24:51.609Z,92.00
2017-09-12T00:27:19.082Z,92.10
2017-09-12T00:29:46.544Z,92.00
2017-09-12T00:32:13.984Z,92.10
2017-09-12T00:34:41.444Z,92.00
2017-09-12T00:37:08.892Z,92.10
2017-09-12T00:39:36.356Z,92.20
2017-09-12T00:42:03.813Z,92.20
2017-09-12T00:44:31.276Z,92.30
2017-09-12T00:46:58.853Z,92.20
2017-09-12T00:49:27.160Z,92.20
2017-09-12T00:51:54.610Z,92.10
2017-09-12T00:54:22.075Z,92.30
2017-09-12T00:56:50.437Z,92.30
2017-09-12T00:59:17.912Z,92.30
2017-09-12T01:01:45.373Z,92.30
2017-09-12T01:04:12.839Z,92.50
2017-09-12T01:06:40.305Z,92.50
2017-09-12T01:09:07.735Z,92.50
2017-09-12T01:11:35.208Z,92.70
2017-09-12T01:14:02.737Z,92.80
2017-09-12T01:16:30.175Z,92.70
2017-09-12T01:18:57.636Z,92.80
2017-09-12T01:21:25.861Z,92.90
2017-09-12T01:23:53.325Z,92.90
2017-09-12T01:26:20.764Z,92.90
2017-09-12T01:28:48.252Z,93.10
2017-09-12T01:31:15.694Z,93.10
2017-09-12T01:33:43.142Z,93.20
2017-09-12T01:36:10.600Z,93.30
2017-09-12T01:38:38.045Z,93.30
2017-09-12T01:41:06.740Z,93.40
2017-09-12T01:43:34.181Z,93.40
2017-09-12T01:46:01.648Z,93.50
2017-09-12T01:48:29.091Z,93.60
2017-09-12T01:50:56.674Z,93.70
2017-09-12T01:53:24.139Z,93.90
2017-09-12T01:55:51.584Z,94.00
2017-09-12T01:58:19.052Z,93.90
2017-09-12T02:00:46.496Z,94.00
2017-09-12T02:03:13.963Z,94.10
2017-09-12T02:05:41.414Z,94.00
2017-09-12T02:08:08.870Z,93.90
2017-09-12T02:10:36.311Z,93.90
2017-09-12T02:13:03.767Z,93.90
2017-09-12T02:15:31.215Z,93.90
2017-09-12T02:17:58.681Z,93.90
2017-09-12T02:20:26.123Z,93.90
2017-09-12T02:22:53.580Z,93.80
2017-09-12T02:25:21.016Z,93.80
2017-09-12T02:27:48.493Z,93.80
2017-09-12T02:30:15.970Z,93.90
2017-09-12T02:32:43.400Z,94.00
2017-09-12T02:35:10.867Z,94.20
2017-09-12T02:37:38.320Z,94.20
2017-09-12T02:40:05.788Z,94.30
2017-09-12T02:42:33.311Z,94.40
2017-09-12T02:45:00.779Z,94.50
2017-09-12T02:47:28.213Z,94.50
2017-09-12T02:49:55.680Z,94.50
2017-09-12T02:52:23.119Z,94.60
2017-09-12T02:54:50.603Z,94.80
2017-09-12T02:57:18.047Z,94.80
2017-09-12T02:59:45.518Z,95.20
2017-09-12T03:02:12.986Z,95.00
2017-09-12T03:04:40.434Z,95.00
2017-09-12T03:07:07.893Z,95.10
2017-09-12T03:09:35.344Z,95.20
2017-09-12T03:12:02.810Z,95.50
2017-09-12T03:14:30.251Z,95.20
2017-09-12T03:16:57.708Z,95.20
2017-09-12T03:19:25.168Z,95.10
2017-09-12T03:21:52.630Z,95.20
2017-09-12T03:24:20.066Z,95.20
2017-09-12T03:26:47.532Z,95.20
2017-09-12T03:29:14.984Z,95.20
2017-09-12T03:31:42.419Z,95.20
2017-09-12T03:34:09.928Z,95.10
2017-09-12T03:36:37.371Z,95.30
2017-09-12T03:39:04.843Z,95.30
2017-09-12T03:41:33.190Z,95.30
2017-09-12T03:44:00.628Z,95.50
2017-09-12T03:46:28.093Z,95.50
2017-09-12T03:48:55.544Z,95.50
2017-09-12T03:51:23.003Z,95.50
2017-09-12T03:53:50.460Z,95.60
2017-09-12T03:56:17.928Z,95.70
2017-09-12T03:58:45.373Z,95.90
2017-09-12T04:01:12.864Z,95.80
2017-09-12T04:03:40.320Z,95.80
2017-09-12T04:06:07.760Z,95.80
2017-09-12T04:08:35.238Z,95.90
2017-09-12T04:11:02.689Z,95.90
2017-09-12T04:13:30.139Z,95.80
2017-09-12T04:15:57.604Z,95.80
2017-09-12T04:18:25.073Z,95.80
2017-09-12T04:20:52.524Z,95.90
2017-09-12T04:23:19.973Z,96.00
2017-09-12T04:25:48.245Z,96.30
2017-09-12T04:28:15.684Z,96.30
2017-09-12T04:30:43.165Z,96.20
2017-09-12T04:33:10.612Z,96.20
2017-09-12T04:35:38.056Z,96.20
2017-09-12T04:38:05.520Z,96.20
2017-09-12T04:40:33.047Z,96.20
2017-09-12T04:43:00.487Z,96.20
2017-09-12T04:45:27.947Z,96.30
2017-09-12T04:47:55.421Z,96.30
2017-09-12T04:50:22.872Z,96.40
2017-09-12T04:52:50.312Z,96.40
2017-09-12T04:55:17.777Z,96.40
2017-09-12T04:57:45.212Z,96.40
2017-09-12T05:00:13.435Z,96.30
2017-09-12T05:02:40.917Z,96.30
2017-09-12T05:05:08.373Z,96.20
2017-09-12T05:07:35.816Z,96.20
2017-09-12T05:10:03.280Z,96.20
2017-09-12T05:12:30.748Z,96.00
2017-09-12T05:14:58.220Z,96.00
2017-09-12T05:17:26.430Z,96.00
2017-09-12T05:19:53.893Z,96.00
2017-09-12T05:22:21.360Z,96.20
2017-09-12T05:24:48.819Z,97.30
2017-09-12T05:27:16.297Z,97.80
2017-09-12T05:29:44.504Z,98.10
2017-09-12T05:32:11.963Z,98.30
2017-09-12T05:34:40.171Z,98.00
2017-09-12T05:37:07.625Z,98.00
2017-09-12T05:39:35.071Z,97.60
2017-09-12T05:42:02.600Z,97.60
2017-09-12T05:44:30.856Z,97.30
2017-09-12T05:46:58.324Z,97.30
2017-09-12T05:49:26.532Z,97.20
2017-09-12T05:51:53.981Z,97.20
2017-09-12T05:54:21.461Z,97.40
2017-09-12T05:56:48.900Z,97.70
2017-09-12T05:59:16.371Z,97.90
2017-09-12T06:01:43.845Z,97.80
2017-09-12T06:04:11.317Z,97.70
2017-09-12T06:06:38.772Z,97.30
2017-09-12T06:09:06.247Z,97.50
2017-09-12T06:11:34.470Z,97.10
2017-09-12T06:14:01.922Z,97.10
2017-09-12T06:16:29.384Z,96.60
2017-09-12T06:18:56.836Z,96.50
2017-09-12T06:21:24.293Z,96.40
2017-09-12T06:23:51.749Z,95.80
2017-09-12T06:26:19.208Z,95.90
2017-09-12T06:28:46.676Z,96.00
2017-09-12T06:31:14.119Z,96.10
2017-09-12T06:33:41.576Z,96.60
2017-09-12T06:36:09.092Z,96.50
2017-09-12T06:38:37.335Z,96.50
2017-09-12T06:41:04.818Z,96.50
2017-09-12T06:43:33.138Z,96.40
2017-09-12T06:46:00.614Z,96.40
2017-09-12T06:48:28.061Z,95.90
2017-09-12T06:50:55.523Z,95.50
2017-09-12T06:53:22.956Z,95.20
2017-09-12T06:55:50.500Z,95.50
2017-09-12T06:58:17.944Z,95.60
2017-09-12T07:00:46.181Z,95.40
2017-09-12T07:03:13.624Z,95.40
2017-09-12T07:05:41.085Z,94.80
2017-09-12T07:08:08.540Z,95.00
2017-09-12T07:10:36.068Z,94.80
2017-09-12T07:13:03.521Z,94.70
2017-09-12T07:15:30.964Z,94.20
2017-09-12T07:17:58.433Z,93.40
2017-09-12T07:20:25.941Z,92.70
2017-09-12T07:22:54.091Z,93.00
2017-09-12T07:25:21.556Z,92.80
2017-09-12T07:27:48.995Z,92.60
2017-09-12T07:30:16.464Z,92.50
2017-09-12T07:32:43.906Z,92.70
2017-09-12T07:35:11.360Z,92.50
2017-09-12T07:37:38.915Z,92.30
2017-09-12T07:40:06.435Z,92.10
2017-09-12T07:42:33.864Z,92.40
2017-09-12T07:45:01.324Z,92.00
2017-09-12T07:47:28.783Z,91.80
2017-09-12T07:49:56.239Z,91.90
2017-09-12T07:52:24.165Z,92.00
2017-09-12T07:54:51.606Z,92.30
2017-09-12T07:57:19.076Z,92.40
2017-09-12T07:59:46.558Z,92.80
2017-09-12T08:02:13.991Z,93.60
2017-09-12T08:04:41.449Z,94.20
2017-09-12T08:07:08.885Z,94.60
2017-09-12T08:09:36.373Z,94.60
2017-09-12T08:12:04.641Z,93.60
2017-09-12T08:14:32.149Z,93.60
2017-09-12T08:17:00.346Z,93.10
2017-09-12T08:19:27.812Z,93.10
2017-09-12T08:21:55.269Z,92.40
2017-09-12T08:24:22.707Z,91.70
2017-09-12T08:26:50.165Z,91.60
2017-09-12T08:29:17.601Z,90.80
2017-09-12T08:31:45.828Z,90.30
2017-09-12T08:34:13.269Z,90.30
2017-09-12T08:36:40.740Z,90.00
2017-09-12T08:39:08.180Z,89.70
2017-09-12T08:41:35.648Z,87.20
2017-09-12T08:44:03.130Z,86.80
2017-09-12T08:46:30.568Z,87.30
2017-09-12T08:48:58.023Z,88.20
2017-09-12T08:51:26.228Z,85.70
2017-09-12T08:53:53.727Z,85.60
2017-09-12T08:56:21.157Z,87.50
2017-09-12T08:58:49.386Z,89.20
2017-09-12T09:01:16.849Z,89.10
2017-09-12T09:03:44.317Z,88.80
2017-09-12T09:06:11.777Z,88.90
2017-09-12T09:08:39.221Z,88.60
2017-09-12T09:11:06.664Z,88.20
2017-09-12T09:13:34.129Z,84.60
2017-09-12T09:16:01.562Z,77.30
2017-09-12T09:18:29.032Z,74.00
2017-09-12T09:20:56.492Z,73.10
2017-09-12T09:23:23.959Z,76.40
2017-09-12T09:25:51.420Z,76.20
2017-09-12T09:28:18.872Z,77.30
2017-09-12T09:30:46.312Z,79.40
2017-09-12T09:33:13.772Z,81.30
2017-09-12T09:35:41.211Z,80.60
2017-09-12T09:38:08.692Z,77.10
2017-09-12T09:40:36.165Z,75.10
2017-09-12T09:43:03.597Z,76.00
2017-09-12T09:45:31.063Z,75.40
2017-09-12T09:47:58.560Z,76.30
2017-09-12T09:50:25.996Z,77.40
2017-09-12T09:52:53.529Z,79.10
2017-09-12T09:55:20.960Z,80.30
2017-09-12T09:57:48.400Z,80.90
2017-09-12T10:00:15.861Z,82.40
2017-09-12T10:02:43.306Z,81.40
2017-09-12T10:05:10.782Z,81.40
2017-09-12T10:07:38.276Z,80.80
2017-09-12T10:10:05.743Z,77.00
2017-09-12T10:12:33.188Z,72.30
2017-09-12T10:15:00.651Z,69.90
2017-09-12T10:17:28.093Z,69.10
2017-09-12T10:19:56.373Z,66.10
2017-09-12T10:22:23.836Z,66.10
2017-09-12T10:24:51.285Z,66.80
2017-09-12T10:27:19.276Z,70.10
2017-09-12T10:29:46.711Z,71.40
2017-09-12T10:32:14.211Z,70.10
2017-09-12T10:34:41.644Z,71.70
2017-09-12T10:37:09.881Z,75.70
2017-09-12T10:39:37.328Z,75.60
2017-09-12T10:42:05.372Z,77.00
2017-09-12T10:44:32.950Z,79.40
2017-09-12T10:47:00.400Z,81.40
2017-09-12T10:49:27.843Z,82.10
2017-09-12T10:51:55.309Z,83.20
2017-09-12T10:54:22.763Z,84.30
2017-09-12T10:56:50.230Z,85.40
2017-09-12T10:59:17.666Z,83.20
2017-09-12T11:01:45.129Z,82.50
2017-09-12T11:04:12.563Z,80.70
2017-09-12T11:06:40.783Z,74.90
2017-09-12T11:09:08.225Z,74.80
2017-09-12T11:11:35.714Z,71.90
2017-09-12T11:14:03.149Z,75.00
2017-09-12T11:16:30.604Z,75.90
2017-09-12T11:18:58.069Z,74.80
2017-09-12T11:21:25.512Z,73.90
2017-09-12T11:23:52.972Z,73.30
2017-09-12T11:26:20.453Z,74.30
2017-09-12T11:28:47.912Z,75.30
2017-09-12T11:31:15.353Z,75.60
2017-09-12T11:33:42.816Z,74.70
2017-09-12T11:36:10.260Z,72.60
2017-09-12T11:38:37.697Z,69.60
2017-09-12T11:41:05.186Z,71.80
2017-09-12T11:43:32.636Z,74.00
2017-09-12T11:46:00.089Z,77.40
2017-09-12T11:48:27.526Z,81.80
2017-09-12T11:50:55.092Z,85.20
2017-09-12T11:53:22.534Z,86.10
2017-09-12T11:55:49.969Z,83.70
2017-09-12T11:58:17.429Z,79.80
2017-09-12T12:00:44.886Z,76.90
2017-09-12T12:03:12.441Z,74.70
2017-09-12T12:05:39.876Z,74.20
2017-09-12T12:08:08.093Z,70.90
2017-09-12T12:10:35.542Z,70.90
2017-09-12T12:13:03.010Z,70.60
2017-09-12T12:15:30.469Z,69.80
2017-09-12T12:17:58.707Z,70.50
2017-09-12T12:20:26.905Z,71.00
2017-09-12T12:22:54.483Z,70.80
2017-09-12T12:25:21.936Z,74.70
2017-09-12T12:27:49.382Z,76.90
2017-09-12T12:30:16.853Z,77.60
2017-09-12T12:32:44.289Z,78.70
2017-09-12T12:35:11.740Z,81.30
2017-09-12T12:37:39.192Z,80.80
2017-09-12T12:40:06.658Z,79.50
2017-09-12T12:42:34.099Z,73.50
2017-09-12T12:45:01.564Z,74.00
2017-09-12T12:47:29.036Z,74.00
2017-09-12T12:49:56.505Z,73.00
2017-09-12T12:52:23.949Z,72.90
2017-09-12T12:54:51.403Z,73.50
2017-09-12T12:57:18.881Z,73.20
2017-09-12T12:59:46.337Z,70.80
2017-09-12T13:02:13.852Z,68.80
2017-09-12T13:04:42.060Z,62.50
2017-09-12T13:07:09.514Z,61.90
2017-09-12T13:09:36.973Z,59.40
2017-09-12T13:12:04.435Z,58.50
2017-09-12T13:14:31.901Z,57.60
2017-09-12T13:16:59.344Z,57.10
2017-09-12T13:19:26.786Z,56.50
2017-09-12T13:21:54.259Z,55.70
2017-09-12T13:24:21.704Z,55.70
2017-09-12T13:26:49.150Z,56.90
2017-09-12T13:29:16.705Z,57.60
2017-09-12T13:31:44.143Z,59.80
2017-09-12T13:34:11.621Z,60.20
2017-09-12T13:36:39.078Z,61.30
2017-09-12T13:39:06.552Z,63.20
2017-09-12T13:41:34.756Z,69.00
2017-09-12T13:44:02.220Z,69.00
2017-09-12T13:46:30.520Z,71.70
2017-09-12T13:48:57.985Z,71.50
2017-09-12T13:51:25.449Z,72.30
2017-09-12T13:53:53.390Z,73.30
2017-09-12T13:56:20.851Z,74.00
2017-09-12T13:58:48.317Z,72.20
2017-09-12T14:01:15.795Z,69.10
2017-09-12T14:03:43.267Z,69.60
2017-09-12T14:06:10.719Z,71.20
2017-09-12T14:08:38.197Z,71.80
2017-09-12T14:11:05.672Z,72.30
2017-09-12T14:13:33.896Z,73.90
2017-09-12T14:16:01.356Z,73.90
2017-09-12T14:18:28.933Z,74.40
2017-09-12T14:20:56.396Z,74.60
2017-09-12T14:23:24.608Z,72.00
2017-09-12T14:25:52.073Z,72.00
2017-09-12T14:28:19.571Z,68.60
2017-09-12T14:30:46.976Z,64.90
2017-09-12T14:33:14.433Z,62.00
2017-09-12T14:35:41.905Z,62.10
2017-09-12T14:38:09.356Z,61.70
2017-09-12T14:40:36.787Z,62.40
2017-09-12T14:43:05.031Z,62.20
2017-09-12T14:45:32.463Z,62.20
2017-09-12T14:47:59.909Z,63.80
2017-09-12T14:50:27.377Z,63.30
2017-09-12T14:52:54.820Z,61.70
2017-09-12T14:55:22.277Z,60.60
2017-09-12T14:57:49.740Z,59.80
2017-09-12T15:00:17.182Z,59.00
2017-09-12T15:02:44.695Z,59.60
2017-09-12T15:05:12.148Z,59.80
2017-09-12T15:07:39.624Z,60.00
2017-09-12T15:10:07.841Z,58.20
2017-09-12T15:12:35.303Z,58.20
2017-09-12T15:15:02.761Z,58.70
2017-09-12T15:17:30.199Z,60.00
2017-09-12T15:19:57.664Z,61.80
2017-09-12T15:22:25.092Z,63.60
2017-09-12T15:24:52.569Z,65.30
2017-09-12T15:27:20.012Z,66.50
2017-09-12T15:29:47.479Z,67.30
2017-09-12T15:32:14.945Z,68.40
2017-09-12T15:34:42.400Z,69.10
2017-09-12T15:37:09.870Z,70.40
2017-09-12T15:39:37.337Z,71.00
2017-09-12T15:42:04.939Z,71.10
2017-09-12T15:44:33.150Z,67.80
2017-09-12T15:47:00.605Z,67.80
2017-09-12T15:49:28.049Z,67.10
2017-09-12T15:51:55.523Z,67.20
2017-09-12T15:54:22.964Z,67.50
2017-09-12T15:56:50.423Z,68.50
2017-09-12T15:59:17.892Z,68.90
2017-09-12T16:01:45.329Z,79.00
2017-09-12T16:04:12.771Z,83.20
2017-09-12T16:06:40.539Z,90.90
2017-09-12T16:09:08.000Z,94.40
2017-09-12T16:11:35.480Z,93.20
2017-09-12T16:14:02.940Z,95.00
2017-09-12T16:16:34.411Z,96.30
2017-09-12T16:19:01.849Z,97.60
2017-09-12T16:21:29.301Z,99.30
2017-09-12T16:23:56.749Z,97.10
2017-09-12T16:26:24.220Z,96.00
2017-09-12T16:28:51.667Z,94.80
2017-09-12T16:31:19.168Z,95.20
2017-09-12T16:33:47.367Z,94.30
2017-09-12T16:36:14.842Z,94.20
2017-09-12T16:38:42.321Z,94.20
2017-09-12T16:41:09.757Z,95.60
2017-09-12T16:43:37.214Z,94.80
2017-09-12T16:46:04.674Z,94.70
2017-09-12T16:48:32.127Z,95.00
2017-09-12T16:50:59.581Z,94.30
2017-09-12T16:53:27.020Z,94.70
2017-09-12T16:55:54.481Z,95.20
2017-09-12T16:58:21.945Z,94.90
2017-09-12T17:00:49.403Z,95.70
2017-09-12T17:03:16.844Z,95.80
2017-09-12T17:05:44.328Z,97.50
2017-09-12T17:08:12.537Z,99.30
2017-09-12T17:10:40.001Z,99.40
2017-09-12T17:13:08.208Z,99.90
2017-09-12T17:15:35.704Z,99.80
2017-09-12T17:18:03.152Z,99.20
2017-09-12T17:20:30.598Z,97.90
2017-09-12T17:22:58.069Z,98.90
2017-09-12T17:25:25.507Z,98.70
2017-09-12T17:27:52.965Z,97.20
2017-09-12T17:30:20.420Z,98.30
2017-09-12T17:32:48.029Z,96.50
2017-09-12T17:35:16.443Z,98.10
2017-09-12T17:37:44.209Z,98.10
2017-09-12T17:40:11.966Z,98.00
2017-09-12T17:42:39.779Z,98.40
2017-09-12T17:45:08.287Z,97.10
2017-09-12T17:47:36.053Z,97.10
2017-09-12T17:50:03.799Z,96.50
2017-09-12T17:52:31.607Z,96.20
2017-09-12T17:54:59.349Z,96.10
2017-09-12T17:57:27.092Z,97.40
2017-09-12T17:59:54.890Z,97.20
2017-09-12T18:02:22.653Z,98.30
2017-09-12T18:04:50.374Z,98.40
2017-09-12T18:07:18.875Z,98.10
2017-09-12T18:09:46.432Z,98.10
2017-09-12T18:12:14.707Z,98.70
2017-09-12T18:14:43.044Z,99.40
2017-09-12T18:17:10.486Z,99.40
2017-09-12T18:19:37.950Z,99.80
2017-09-12T18:22:05.428Z,99.10
2017-09-12T18:24:32.876Z,98.80
2017-09-12T18:27:00.336Z,98.10
2017-09-12T18:29:27.784Z,97.90
2017-09-12T18:31:55.265Z,98.40
2017-09-12T18:34:23.481Z,99.30
2017-09-12T18:36:50.959Z,99.30
2017-09-12T18:39:18.445Z,99.20
2017-09-12T18:41:45.956Z,99.20
2017-09-12T18:44:13.495Z,99.50
2017-09-12T18:46:41.033Z,99.50
2017-09-12T18:49:08.483Z,99.30
2017-09-12T18:51:36.764Z,98.10
2017-09-12T18:54:04.215Z,98.10
2017-09-12T18:56:32.455Z,97.40
2017-09-12T18:58:59.932Z,97.40
2017-09-12T19:01:27.373Z,97.50
2017-09-12T19:03:54.858Z,97.40
2017-09-12T19:06:23.113Z,97.50
2017-09-12T19:08:50.580Z,97.70
2017-09-12T19:11:18.102Z,97.50
2017-09-12T19:13:45.565Z,97.60
2017-09-12T19:16:13.809Z,98.30
2017-09-12T19:18:41.322Z,98.30
2017-09-12T19:21:08.785Z,99.40
2017-09-12T19:23:36.304Z,99.70
2017-09-12T19:26:03.744Z,99.90
2017-09-12T19:28:31.233Z,99.90
2017-09-12T19:30:58.685Z,99.90
2017-09-12T19:33:26.165Z,99.90
2017-09-12T19:35:53.664Z,99.90
2017-09-12T19:38:21.122Z,99.90
2017-09-12T19:40:48.591Z,99.90
2017-09-12T19:43:16.036Z,99.90
2017-09-12T19:45:43.506Z,99.90
2017-09-12T19:48:10.972Z,99.90
2017-09-12T19:50:38.458Z,99.90
2017-09-12T19:53:05.941Z,99.90
2017-09-12T19:55:34.172Z,99.90
2017-09-12T19:58:01.649Z,99.90
2017-09-12T20:00:29.095Z,99.90
2017-09-12T20:02:56.629Z,99.90
2017-09-12T20:05:24.917Z,99.90
2017-09-12T20:07:52.384Z,99.90
2017-09-12T20:10:19.842Z,99.90
2017-09-12T20:12:47.320Z,99.90
2017-09-12T20:15:15.546Z,99.90
2017-09-12T20:17:43.013Z,99.90
2017-09-12T20:20:10.471Z,99.90
2017-09-12T20:22:37.933Z,99.90
2017-09-12T20:25:05.380Z,99.90
2017-09-12T20:27:32.842Z,99.90
2017-09-12T20:30:01.065Z,99.90
2017-09-12T20:32:28.530Z,99.90
2017-09-12T20:34:55.996Z,99.90
2017-09-12T20:37:23.463Z,99.90
2017-09-12T20:39:50.943Z,99.90
2017-09-12T20:42:18.393Z,99.80
2017-09-12T20:44:46.641Z,99.70
2017-09-12T20:47:14.112Z,99.70
2017-09-12T20:49:41.577Z,99.90
2017-09-12T20:52:09.815Z,99.70
2017-09-12T20:54:37.268Z,99.90
2017-09-12T20:57:04.741Z,99.50
2017-09-12T20:59:32.209Z,99.10
2017-09-12T21:01:59.698Z,99.10
2017-09-12T21:04:27.151Z,98.90
2017-09-12T21:06:54.606Z,98.50
2017-09-12T21:09:22.069Z,98.60
2017-09-12T21:11:49.538Z,98.50
2017-09-12T21:14:16.978Z,98.20
2017-09-12T21:16:44.473Z,98.50
2017-09-12T21:19:11.959Z,97.70
2017-09-12T21:21:39.405Z,97.90
2017-09-12T21:24:06.864Z,97.90
2017-09-12T21:26:34.332Z,97.80
2017-09-12T21:29:01.798Z,97.70
2017-09-12T21:31:29.225Z,98.00
2017-09-12T21:33:56.705Z,98.10
2017-09-12T21:36:24.168Z,97.80
2017-09-12T21:38:51.612Z,97.70
2017-09-12T21:41:19.100Z,97.50
2017-09-12T21:43:46.560Z,97.90
2017-09-12T21:46:14.016Z,97.40
2017-09-12T21:48:41.467Z,97.20
2017-09-12T21:51:08.936Z,97.20
2017-09-12T21:53:37.155Z,97.10
2017-09-12T21:56:04.707Z,97.10
2017-09-12T21:58:32.163Z,97.20
2017-09-12T22:00:59.641Z,97.20
2017-09-12T22:03:27.089Z,97.60
2017-09-12T22:05:54.541Z,97.50
2017-09-12T22:08:22.016Z,97.60
2017-09-12T22:10:49.454Z,97.80
2017-09-12T22:13:16.939Z,97.90
2017-09-12T22:15:44.379Z,97.90
2017-09-12T22:18:11.871Z,97.90
2017-09-12T22:20:39.312Z,98.10
2017-09-12T22:23:06.763Z,98.10
2017-09-12T22:25:34.219Z,98.30
2017-09-12T22:28:01.660Z,98.50
2017-09-12T22:30:29.132Z,98.50
2017-09-12T22:32:56.593Z,98.50
2017-09-12T22:35:24.056Z,98.60
2017-09-12T22:37:51.500Z,98.70
2017-09-12T22:40:18.964Z,98.70
2017-09-12T22:42:46.405Z,98.60
2017-09-12T22:45:13.889Z,98.80
2017-09-12T22:47:42.103Z,99.50
2017-09-12T22:50:09.557Z,99.10
2017-09-12T22:52:37.036Z,99.10
2017-09-12T22:55:04.468Z,99.70
2017-09-12T22:57:31.910Z,99.40
2017-09-12T22:59:59.378Z,99.50
2017-09-12T23:02:26.865Z,99.40
2017-09-12T23:04:54.357Z,99.90
2017-09-12T23:07:21.808Z,99.40
2017-09-12T23:09:49.261Z,99.50
2017-09-12T23:12:16.712Z,99.60
2017-09-12T23:14:44.175Z,99.70
2017-09-12T23:17:11.621Z,99.70
2017-09-12T23:19:39.085Z,99.70
2017-09-12T23:22:06.527Z,99.80
2017-09-12T23:24:33.992Z,99.90
2017-09-12T23:27:01.452Z,99.90
2017-09-12T23:29:28.897Z,99.90
2017-09-12T23:31:56.379Z,99.90
2017-09-12T23:34:24.594Z,99.90
2017-09-12T23:36:52.051Z,99.90
2017-09-12T23:39:20.324Z,99.90
2017-09-12T23:41:47.814Z,99.90
2017-09-12T23:44:15.290Z,99.90
2017-09-12T23:46:42.732Z,99.90
2017-09-12T23:49:10.206Z,99.90
2017-09-12T23:51:37.658Z,99.90
2017-09-12T23:54:05.122Z,99.90
2017-09-12T23:56:33.340Z,99.90
2017-09-12T23:59:00.911Z,99.90
